LJMB/MBX METAR and TAF weather

Enter ICAO airport designator
Station Type Date Time Source
LJMB METAR 2020/01/17 14:00 UTC NOAA

LJMB 171400Z 10006KT 5000 BR OVC010 02/01 Q1025


Station Type Date Time Source
LJMB Decoded METAR 2020/01/17 14:00 UTC NOAA

Maribor / Slivnica, Slovenia (LJMB) 46-29N 015-41E 265M
Jan 17, 2020 - 09:00 AM EST / 2020.01.17 1400 UTC
Wind: from the E (100 degrees) at 7 MPH (6 KT):0
Visibility: 3 mile(s):0
Sky conditions: overcast
Weather: mist
Temperature: 35 F (2 C)
Windchill: 28 F (-2 C):1
Dew Point: 33 F (1 C)
Relative Humidity: 93%
Pressure (altimeter): 30.27 in. Hg (1025 hPa)
ob: LJMB 171400Z 10006KT 5000 BR OVC010 02/01 Q1025
cycle: 14

Station Type Date Time Source
LJMB TAF 2020/01/17 15:07 UTC NOAA

TAF LJMB 171400Z 1715/1815 11005KT 5000 BR OVC009
BECMG 1717/1719 36003KT 2500 OVC005
TEMPO 1720/1809 0400 FZFG VV002
BECMG 1810/1812 02005KT 7000 -SN SCT020 BKN035 OVC060

Example: see airport list